createdAt,value
2018-03-11T00:01:38.968Z,108.65
2018-03-11T00:04:04.953Z,108.07
2018-03-11T00:06:30.978Z,112.18
2018-03-11T00:08:56.994Z,99.07
2018-03-11T00:11:23.003Z,84.80
2018-03-11T00:13:49.053Z,76.15
2018-03-11T00:16:15.082Z,68.00
2018-03-11T00:18:41.130Z,68.53
2018-03-11T00:21:07.157Z,65.95
2018-03-11T00:23:33.164Z,68.10
2018-03-11T00:25:59.183Z,56.92
2018-03-11T00:28:25.211Z,50.38
2018-03-11T00:30:51.223Z,65.18
2018-03-11T00:33:17.225Z,53.92
2018-03-11T00:35:43.257Z,63.03
2018-03-11T00:38:09.264Z,61.58
2018-03-11T00:40:35.906Z,63.33
2018-03-11T00:43:02.006Z,52.35
2018-03-11T00:45:28.003Z,40.80
2018-03-11T00:47:54.009Z,45.00
2018-03-11T00:50:20.190Z,39.15
2018-03-11T00:52:46.302Z,50.08
2018-03-11T00:55:12.300Z,44.55
2018-03-11T00:57:38.336Z,41.03
2018-03-11T01:00:04.453Z,45.88
2018-03-11T01:02:30.533Z,43.65
2018-03-11T01:04:56.568Z,38.80
2018-03-11T01:07:22.583Z,37.45
2018-03-11T01:09:48.648Z,37.05
2018-03-11T01:12:14.751Z,43.67
2018-03-11T01:14:40.773Z,46.05
2018-03-11T01:17:06.804Z,38.95
2018-03-11T01:19:32.964Z,55.12
2018-03-11T01:21:58.987Z,51.58
2018-03-11T01:24:25.014Z,48.60
2018-03-11T01:26:51.045Z,44.42
2018-03-11T01:29:17.045Z,47.13
2018-03-11T01:31:43.051Z,41.25
2018-03-11T01:34:09.096Z,41.78
2018-03-11T01:36:35.112Z,43.08
2018-03-11T01:39:01.123Z,42.20
2018-03-11T01:41:27.105Z,44.05
2018-03-11T01:43:53.102Z,49.03
2018-03-11T01:46:19.136Z,58.33
2018-03-11T01:48:45.129Z,40.00
2018-03-11T01:51:11.119Z,44.70
2018-03-11T01:53:37.121Z,43.67
2018-03-11T01:56:03.184Z,38.05
2018-03-11T01:58:29.241Z,37.35
2018-03-11T02:00:55.201Z,39.63
2018-03-11T02:03:21.205Z,37.40
2018-03-11T02:05:47.201Z,37.45
2018-03-11T02:08:13.176Z,39.67
2018-03-11T02:10:39.178Z,45.83
2018-03-11T02:13:05.214Z,57.33
2018-03-11T02:15:31.216Z,57.75
2018-03-11T02:17:57.198Z,72.05
2018-03-11T02:20:23.189Z,84.03
2018-03-11T02:22:49.196Z,73.90
2018-03-11T02:25:15.217Z,87.28
2018-03-11T02:27:41.228Z,60.88
2018-03-11T02:30:07.211Z,67.70
2018-03-11T02:32:33.230Z,80.45
2018-03-11T02:34:59.210Z,104.10
2018-03-11T02:37:25.311Z,78.75
2018-03-11T02:39:51.325Z,84.53
2018-03-11T02:42:18.009Z,89.78
2018-03-11T02:44:44.138Z,106.20
2018-03-11T02:47:10.164Z,132.98
2018-03-11T02:49:36.145Z,185.12
2018-03-11T02:52:02.283Z,188.83
2018-03-11T02:54:28.326Z,154.07
2018-03-11T02:56:54.331Z,146.98
2018-03-11T02:59:20.322Z,170.77
2018-03-11T03:01:46.418Z,237.07
2018-03-11T03:04:12.537Z,206.95
2018-03-11T03:06:38.564Z,217.95
2018-03-11T03:09:04.555Z,179.25
2018-03-11T03:11:30.642Z,220.20
2018-03-11T03:13:56.675Z,240.80
2018-03-11T03:16:22.684Z,206.15
2018-03-11T03:18:48.707Z,242.05
2018-03-11T03:21:14.806Z,202.27
2018-03-11T03:23:40.836Z,208.13
2018-03-11T03:26:06.840Z,202.52
2018-03-11T03:28:32.870Z,220.02
2018-03-11T03:30:58.889Z,205.87
2018-03-11T03:33:24.901Z,207.07
2018-03-11T03:35:50.950Z,272.67
2018-03-11T03:38:16.969Z,283.10
2018-03-11T03:40:42.958Z,226.98
2018-03-11T03:43:08.963Z,229.32
2018-03-11T03:45:35.001Z,224.43
2018-03-11T03:48:00.990Z,295.50
2018-03-11T03:50:26.994Z,272.83
2018-03-11T03:52:52.994Z,316.05
2018-03-11T03:55:19.005Z,263.45
2018-03-11T03:57:45.022Z,299.27
2018-03-11T04:00:11.175Z,397.05
2018-03-11T04:02:37.234Z,354.75
2018-03-11T04:05:03.221Z,423.92
2018-03-11T04:07:29.280Z,413.33
2018-03-11T04:09:55.261Z,477.60
2018-03-11T04:12:21.258Z,325.50
2018-03-11T04:14:47.248Z,261.65
2018-03-11T04:17:13.261Z,352.08
2018-03-11T04:19:39.274Z,281.23
2018-03-11T04:22:05.285Z,343.70
2018-03-11T04:24:31.334Z,315.83
2018-03-11T04:26:57.327Z,312.05
2018-03-11T04:29:23.366Z,265.37
2018-03-11T04:31:49.394Z,260.75
2018-03-11T04:34:15.434Z,296.37
2018-03-11T04:36:41.488Z,261.20
2018-03-11T04:39:07.501Z,231.50
2018-03-11T04:41:33.531Z,214.90
2018-03-11T04:43:59.529Z,212.00
2018-03-11T04:46:25.591Z,271.52
2018-03-11T04:48:51.578Z,285.02
2018-03-11T04:51:17.585Z,245.82
2018-03-11T04:53:44.314Z,197.65
2018-03-11T04:56:10.376Z,176.45
2018-03-11T04:58:36.741Z,175.02
2018-03-11T05:01:02.763Z,185.37
2018-03-11T05:03:28.770Z,137.57
2018-03-11T05:05:54.957Z,255.90
2018-03-11T05:08:20.932Z,193.50
2018-03-11T05:10:46.924Z,219.10
2018-03-11T05:13:12.944Z,168.80
2018-03-11T05:15:38.962Z,154.98
2018-03-11T05:18:04.976Z,151.25
2018-03-11T05:20:31.010Z,150.32
2018-03-11T05:22:57.041Z,147.93
2018-03-11T05:25:23.013Z,164.10
2018-03-11T05:27:48.991Z,127.73
2018-03-11T05:30:14.991Z,137.87
2018-03-11T05:32:40.994Z,163.35
2018-03-11T05:35:06.987Z,136.57
2018-03-11T05:37:32.962Z,157.23
2018-03-11T05:39:58.955Z,141.50
2018-03-11T05:42:24.955Z,198.00
2018-03-11T05:44:50.973Z,145.32
2018-03-11T05:47:17.055Z,160.80
2018-03-11T05:49:43.048Z,190.23
2018-03-11T05:52:09.042Z,168.47
2018-03-11T05:54:35.043Z,164.20
2018-03-11T05:57:01.062Z,162.20
2018-03-11T05:59:27.016Z,176.70
2018-03-11T06:01:53.046Z,188.10
2018-03-11T06:04:19.067Z,177.60
2018-03-11T06:06:45.053Z,182.37
2018-03-11T06:09:11.062Z,170.27
2018-03-11T06:11:37.145Z,179.35
2018-03-11T06:14:03.135Z,176.15
2018-03-11T06:16:29.141Z,170.75
2018-03-11T06:18:55.139Z,198.60
2018-03-11T06:21:21.134Z,174.48
2018-03-11T06:23:47.159Z,163.43
2018-03-11T06:26:13.154Z,182.48
2018-03-11T06:28:39.147Z,172.43
2018-03-11T06:31:05.154Z,172.45
2018-03-11T06:33:31.158Z,162.88
2018-03-11T06:35:57.151Z,165.52
2018-03-11T06:38:23.191Z,170.80
2018-03-11T06:40:49.177Z,149.27
2018-03-11T06:43:15.174Z,150.63
2018-03-11T06:45:41.189Z,142.20
2018-03-11T06:48:07.228Z,140.35
2018-03-11T06:50:33.217Z,129.12
2018-03-11T06:52:59.214Z,124.60
2018-03-11T06:55:25.227Z,128.35
2018-03-11T06:57:51.242Z,137.80
2018-03-11T07:00:17.367Z,126.70
2018-03-11T07:02:43.363Z,152.93
2018-03-11T07:05:09.374Z,124.47
2018-03-11T07:07:35.374Z,113.12
2018-03-11T07:10:01.394Z,98.22
2018-03-11T07:12:27.383Z,105.18
2018-03-11T07:14:53.372Z,118.85
2018-03-11T07:17:19.357Z,132.13
2018-03-11T07:19:45.389Z,148.13
2018-03-11T07:22:11.457Z,127.07
2018-03-11T07:24:37.754Z,140.85
2018-03-11T07:27:03.746Z,133.63
2018-03-11T07:29:29.733Z,142.13
2018-03-11T07:31:55.719Z,179.63
2018-03-11T07:34:21.737Z,158.43
2018-03-11T07:36:47.826Z,161.48
2018-03-11T07:39:14.447Z,156.32
2018-03-11T07:41:40.449Z,149.15
2018-03-11T07:44:06.490Z,160.93
2018-03-11T07:46:33.061Z,155.12
2018-03-11T07:48:59.074Z,161.85
2018-03-11T07:51:25.045Z,165.65
2018-03-11T07:53:51.071Z,162.43
2018-03-11T07:56:17.074Z,159.57
2018-03-11T07:58:43.071Z,168.77
2018-03-11T08:01:09.104Z,159.65
2018-03-11T08:03:35.118Z,176.68
2018-03-11T08:06:01.105Z,163.52
2018-03-11T08:08:27.113Z,156.55
2018-03-11T08:10:53.162Z,176.57
2018-03-11T08:13:19.195Z,145.02
2018-03-11T08:15:45.227Z,143.10
2018-03-11T08:18:11.226Z,162.35
2018-03-11T08:20:37.491Z,165.20
2018-03-11T08:23:03.514Z,148.07
2018-03-11T08:25:29.520Z,138.05
2018-03-11T08:27:55.525Z,152.45
2018-03-11T08:30:21.546Z,171.48
2018-03-11T08:32:47.551Z,160.88
2018-03-11T08:35:13.531Z,169.90
2018-03-11T08:37:39.642Z,145.50
2018-03-11T08:40:05.682Z,144.32
2018-03-11T08:42:31.657Z,165.45
2018-03-11T08:44:57.656Z,147.87
2018-03-11T08:47:23.634Z,162.40
2018-03-11T08:49:49.642Z,173.80
2018-03-11T08:52:15.651Z,159.82
2018-03-11T08:54:41.782Z,171.18
2018-03-11T08:57:07.775Z,173.25
2018-03-11T08:59:33.795Z,195.20
2018-03-11T09:01:59.833Z,214.30
2018-03-11T09:04:25.822Z,204.70
2018-03-11T09:06:51.863Z,226.82
2018-03-11T09:09:17.874Z,184.07
2018-03-11T09:11:43.979Z,186.98
2018-03-11T09:14:09.964Z,185.90
2018-03-11T09:16:35.974Z,190.13
2018-03-11T09:19:02.108Z,203.40
2018-03-11T09:21:28.196Z,167.32
2018-03-11T09:23:54.205Z,105.60
2018-03-11T09:26:20.237Z,77.93
2018-03-11T09:28:47.095Z,61.08
2018-03-11T09:31:13.074Z,34.55
2018-03-11T09:33:41.131Z,30.97
2018-03-11T09:36:07.166Z,24.85
2018-03-11T09:38:33.201Z,20.92
2018-03-11T09:40:59.207Z,21.48
2018-03-11T09:43:25.203Z,24.83
2018-03-11T09:45:51.243Z,22.15
2018-03-11T09:48:17.227Z,22.30
2018-03-11T09:50:43.264Z,22.75
2018-03-11T09:53:09.246Z,21.02
2018-03-11T09:55:35.239Z,28.83
2018-03-11T09:58:01.275Z,28.20
2018-03-11T10:00:27.289Z,28.58
2018-03-11T10:02:53.421Z,29.55
2018-03-11T10:05:19.443Z,33.70
2018-03-11T10:07:45.465Z,32.40
2018-03-11T10:10:12.458Z,31.10
2018-03-11T10:12:38.908Z,34.55
2018-03-11T10:15:04.950Z,34.90
2018-03-11T10:17:30.975Z,35.40
2018-03-11T10:19:56.974Z,44.42
2018-03-11T10:22:23.019Z,51.15
2018-03-11T10:24:49.022Z,43.60
2018-03-11T10:27:15.138Z,33.22
2018-03-11T10:29:41.166Z,48.78
2018-03-11T10:32:07.165Z,35.97
2018-03-11T10:34:33.202Z,50.53
2018-03-11T10:36:59.185Z,48.15
2018-03-11T10:39:25.219Z,45.10
2018-03-11T10:41:51.229Z,38.00
2018-03-11T10:44:17.226Z,39.78
2018-03-11T10:46:43.229Z,39.83
2018-03-11T10:49:09.250Z,35.57
2018-03-11T10:51:35.291Z,34.53
2018-03-11T10:54:01.291Z,29.02
2018-03-11T10:56:28.054Z,27.42
2018-03-11T10:58:54.155Z,26.27
2018-03-11T11:01:20.205Z,22.25
2018-03-11T11:03:52.191Z,27.70
2018-03-11T11:06:18.242Z,23.97
2018-03-11T11:08:44.476Z,24.67
2018-03-11T11:11:10.656Z,25.25
2018-03-11T11:13:36.710Z,26.57
2018-03-11T11:16:02.753Z,19.27
2018-03-11T11:18:28.776Z,16.50
2018-03-11T11:20:54.885Z,14.55
2018-03-11T11:23:20.894Z,13.50
2018-03-11T11:25:46.910Z,13.30
2018-03-11T11:28:13.022Z,13.80
2018-03-11T11:30:39.589Z,15.65
2018-03-11T11:33:05.613Z,14.03
2018-03-11T11:35:31.629Z,15.27
2018-03-11T11:37:57.651Z,15.63
2018-03-11T11:40:23.646Z,9.38
2018-03-11T11:42:49.666Z,10.20
2018-03-11T11:45:15.658Z,11.23
2018-03-11T11:47:41.686Z,9.43
2018-03-11T11:50:07.665Z,10.00
2018-03-11T11:52:33.667Z,7.77
2018-03-11T11:54:59.805Z,10.20
2018-03-11T11:57:25.816Z,9.53
2018-03-11T11:59:51.816Z,10.17
2018-03-11T12:02:17.950Z,9.73
2018-03-11T12:04:44.023Z,9.13
2018-03-11T12:07:10.027Z,8.30
2018-03-11T12:09:36.045Z,7.97
2018-03-11T12:12:02.071Z,7.57
2018-03-11T12:14:28.097Z,9.67
2018-03-11T12:16:54.155Z,8.27
2018-03-11T12:19:20.331Z,6.60
2018-03-11T12:21:46.419Z,9.77
2018-03-11T12:24:12.510Z,6.77
2018-03-11T12:26:38.587Z,7.77
2018-03-11T12:29:04.594Z,7.63
2018-03-11T12:31:30.633Z,6.43
2018-03-11T12:33:56.693Z,6.47
2018-03-11T12:36:22.694Z,5.30
2018-03-11T12:38:48.724Z,5.80
2018-03-11T12:41:15.721Z,7.33
2018-03-11T12:43:41.810Z,7.37
2018-03-11T12:46:07.805Z,6.80
2018-03-11T12:48:33.811Z,6.47
2018-03-11T12:50:59.920Z,5.83
2018-03-11T12:53:26.568Z,7.13
2018-03-11T12:55:52.614Z,5.37
2018-03-11T12:58:18.705Z,5.90
2018-03-11T13:00:44.677Z,3.40
2018-03-11T13:03:10.701Z,4.43
2018-03-11T13:05:36.703Z,3.80
2018-03-11T13:08:02.810Z,4.80
2018-03-11T13:10:28.838Z,5.70
2018-03-11T13:12:54.922Z,4.40
2018-03-11T13:15:21.002Z,5.47
2018-03-11T13:17:47.049Z,5.13
2018-03-11T13:20:25.365Z,6.67
2018-03-11T13:22:51.404Z,7.20
2018-03-11T13:25:17.447Z,4.57
2018-03-11T13:27:55.486Z,4.27
2018-03-11T13:30:21.529Z,5.13
2018-03-11T13:32:59.610Z,4.97
2018-03-11T13:35:25.626Z,7.27
2018-03-11T13:37:51.775Z,5.33
2018-03-11T13:40:29.920Z,5.10
2018-03-11T13:42:55.921Z,4.77
2018-03-11T13:45:34.012Z,4.90
2018-03-11T13:48:00.033Z,5.03
2018-03-11T13:50:26.058Z,5.07
2018-03-11T13:53:04.166Z,6.70
2018-03-11T13:55:30.188Z,3.53
2018-03-11T14:00:59.709Z,3.27
2018-03-11T14:03:25.710Z,3.87
2018-03-11T14:05:51.746Z,4.37
2018-03-11T14:08:17.750Z,4.77
2018-03-11T14:10:43.770Z,3.87
2018-03-11T14:13:09.788Z,4.20
2018-03-11T14:15:35.909Z,3.50
2018-03-11T14:18:01.889Z,4.17
2018-03-11T14:20:27.919Z,3.47
2018-03-11T14:22:53.968Z,4.70
2018-03-11T14:25:19.986Z,5.10
2018-03-11T14:27:46.049Z,5.67
2018-03-11T14:30:12.314Z,6.07
2018-03-11T14:32:38.519Z,4.27
2018-03-11T14:35:05.232Z,4.73
2018-03-11T14:37:31.277Z,7.40
2018-03-11T14:39:57.301Z,4.63
2018-03-11T14:42:23.325Z,6.97
2018-03-11T14:44:49.338Z,6.23
2018-03-11T14:47:15.356Z,7.13
2018-03-11T14:49:41.363Z,7.50
2018-03-11T14:52:07.415Z,6.53
2018-03-11T14:54:33.540Z,9.07
2018-03-11T14:56:59.560Z,6.67
2018-03-11T14:59:25.618Z,9.63
2018-03-11T15:01:51.752Z,7.23
2018-03-11T15:04:17.814Z,10.10
2018-03-11T15:06:43.838Z,8.83
2018-03-11T15:09:09.851Z,7.77
2018-03-11T15:11:36.067Z,7.90
2018-03-11T15:14:02.113Z,11.60
2018-03-11T15:16:28.163Z,8.73
2018-03-11T15:18:54.221Z,9.10
2018-03-11T15:21:20.330Z,9.63
2018-03-11T15:23:46.341Z,7.93
2018-03-11T15:26:12.381Z,8.07
2018-03-11T15:28:38.491Z,9.73
2018-03-11T15:31:04.590Z,7.63
2018-03-11T15:33:30.676Z,8.57
2018-03-11T15:35:56.714Z,8.97
2018-03-11T15:38:22.815Z,9.37
2018-03-11T15:40:48.837Z,9.30
2018-03-11T15:43:35.489Z,10.57
2018-03-11T15:46:01.506Z,10.17
2018-03-11T15:48:27.494Z,9.60
2018-03-11T15:50:53.529Z,9.40
2018-03-11T15:53:19.603Z,10.47
2018-03-11T15:55:45.611Z,9.50
2018-03-11T15:58:11.636Z,8.70
2018-03-11T16:00:37.761Z,8.27
2018-03-11T16:03:03.824Z,10.20
2018-03-11T16:05:29.848Z,8.00
2018-03-11T16:07:55.963Z,9.37
2018-03-11T16:10:21.984Z,9.03
2018-03-11T16:12:48.702Z,9.77
2018-03-11T16:15:14.752Z,8.67
2018-03-11T16:17:40.931Z,8.87
2018-03-11T16:20:07.033Z,8.03
2018-03-11T16:22:33.114Z,7.37
2018-03-11T16:24:59.151Z,9.73
2018-03-11T16:27:25.206Z,7.93
2018-03-11T16:29:51.250Z,8.80
2018-03-11T16:32:17.267Z,8.63
2018-03-11T16:34:43.297Z,8.80
2018-03-11T16:37:09.350Z,10.37
2018-03-11T16:39:35.413Z,11.37
2018-03-11T16:42:01.506Z,9.00
2018-03-11T16:44:27.544Z,10.20
2018-03-11T16:46:53.662Z,12.80
2018-03-11T16:49:19.713Z,12.67
2018-03-11T16:51:45.756Z,11.33
2018-03-11T16:54:11.770Z,12.13
2018-03-11T16:56:37.817Z,9.63
2018-03-11T16:59:03.828Z,10.47
2018-03-11T17:01:29.855Z,10.30
2018-03-11T17:03:55.859Z,13.40
2018-03-11T17:06:21.926Z,11.40
2018-03-11T17:08:48.031Z,13.00
2018-03-11T17:11:14.069Z,11.00
2018-03-11T17:13:40.697Z,13.40
2018-03-11T17:16:06.790Z,13.27
2018-03-11T17:18:32.954Z,13.60
2018-03-11T17:20:58.977Z,14.77
2018-03-11T17:23:25.089Z,13.43
2018-03-11T17:25:51.109Z,15.03
2018-03-11T17:28:17.140Z,14.20
2018-03-11T17:30:43.211Z,13.70
2018-03-11T17:33:09.233Z,15.90
2018-03-11T17:35:35.287Z,13.23
2018-03-11T17:38:01.326Z,14.23
2018-03-11T17:40:27.377Z,16.60
2018-03-11T17:42:53.423Z,16.77
2018-03-11T17:45:19.453Z,16.27
2018-03-11T17:47:45.509Z,18.37
2018-03-11T17:50:11.557Z,16.48
2018-03-11T17:54:01.842Z,14.70
2018-03-11T17:56:27.870Z,16.13
2018-03-11T17:58:53.933Z,17.60
2018-03-11T18:01:20.114Z,14.97
2018-03-11T18:03:46.110Z,17.27
2018-03-11T18:06:12.094Z,14.37
2018-03-11T18:08:38.180Z,15.60
2018-03-11T18:11:04.338Z,14.00
2018-03-11T18:13:30.346Z,13.82
2018-03-11T18:15:56.334Z,15.63
2018-03-11T18:18:22.362Z,13.10
2018-03-11T18:20:48.502Z,16.73
2018-03-11T18:23:14.498Z,17.97
2018-03-11T18:25:40.587Z,16.75
2018-03-11T18:28:06.733Z,18.90
2018-03-11T18:30:32.795Z,17.60
2018-03-11T18:32:58.807Z,18.70
2018-03-11T18:35:24.829Z,15.73
2018-03-11T18:37:51.401Z,21.62
2018-03-11T18:40:17.433Z,16.85
2018-03-11T18:42:43.440Z,20.87
2018-03-11T18:45:09.453Z,20.05
2018-03-11T18:47:35.497Z,18.08
2018-03-11T18:50:01.527Z,19.70
2018-03-11T18:52:27.631Z,18.62
2018-03-11T18:54:53.644Z,22.33
2018-03-11T18:57:19.679Z,21.27
2018-03-11T18:59:45.733Z,24.83
2018-03-11T19:02:11.861Z,21.27
2018-03-11T19:04:37.963Z,22.75
2018-03-11T19:07:04.012Z,22.25
2018-03-11T19:09:30.020Z,22.95
2018-03-11T19:11:56.082Z,20.83
2018-03-11T19:14:22.155Z,22.67
2018-03-11T19:16:48.163Z,23.05
2018-03-11T19:19:14.166Z,22.23
2018-03-11T19:21:40.304Z,22.33
2018-03-11T19:24:06.491Z,26.85
2018-03-11T19:26:32.571Z,23.75
2018-03-11T19:28:58.595Z,23.20
2018-03-11T19:31:24.742Z,20.77
2018-03-11T19:33:50.851Z,27.15
2018-03-11T19:36:16.972Z,26.40
2018-03-11T19:38:43.142Z,25.67
2018-03-11T19:41:09.153Z,29.10
2018-03-11T19:43:35.227Z,26.83
2018-03-11T19:46:01.263Z,29.45
2018-03-11T19:48:27.299Z,28.30
2018-03-11T19:50:53.358Z,25.25
2018-03-11T19:53:19.405Z,23.70
2018-03-11T19:55:45.473Z,28.38
2018-03-11T19:58:11.538Z,29.02
2018-03-11T20:00:37.660Z,29.58
2018-03-11T20:03:04.298Z,31.15
2018-03-11T20:05:30.477Z,27.70
2018-03-11T20:07:56.598Z,28.90
2018-03-11T20:10:22.653Z,29.12
2018-03-11T20:12:49.733Z,30.77
2018-03-11T20:15:15.883Z,30.20
2018-03-11T20:17:42.090Z,34.95
2018-03-11T20:20:08.274Z,31.45
2018-03-11T20:22:34.236Z,29.65
2018-03-11T20:25:00.224Z,32.35
2018-03-11T20:27:26.307Z,36.88
2018-03-11T20:29:52.372Z,28.85
2018-03-11T20:32:18.469Z,36.55
2018-03-11T20:34:44.545Z,34.88
2018-03-11T20:37:10.654Z,33.85
2018-03-11T20:39:36.762Z,35.35
2018-03-11T20:42:02.822Z,31.73
2018-03-11T20:44:28.838Z,35.20
2018-03-11T20:46:55.052Z,34.15
2018-03-11T20:49:21.225Z,33.00
2018-03-11T20:51:47.245Z,34.63
2018-03-11T20:54:13.290Z,38.45
2018-03-11T20:56:39.349Z,36.08
2018-03-11T20:59:06.685Z,31.27
2018-03-11T21:01:32.814Z,28.48
2018-03-11T21:03:59.763Z,35.13
2018-03-11T21:06:25.805Z,29.37
2018-03-11T21:08:51.866Z,32.33
2018-03-11T21:11:17.871Z,29.70
2018-03-11T21:13:43.951Z,32.78
2018-03-11T21:16:10.014Z,32.92
2018-03-11T21:18:36.133Z,29.77
2018-03-11T21:21:02.281Z,33.60
2018-03-11T21:23:28.321Z,28.12
2018-03-11T21:25:54.700Z,30.10
2018-03-11T21:28:21.679Z,29.55
2018-03-11T21:30:47.671Z,26.95
2018-03-11T21:33:13.691Z,26.45
2018-03-11T21:35:46.714Z,27.13
2018-03-11T21:38:12.755Z,26.52
2018-03-11T21:40:39.440Z,26.62
2018-03-11T21:43:05.471Z,25.15
2018-03-11T21:45:31.531Z,24.10
2018-03-11T21:47:57.554Z,22.23
2018-03-11T21:50:23.561Z,20.55
2018-03-11T21:52:49.574Z,20.08
2018-03-11T21:55:15.765Z,17.90
2018-03-11T21:57:41.763Z,17.73
2018-03-11T22:00:07.821Z,16.58
2018-03-11T22:02:33.878Z,17.08
2018-03-11T22:04:59.910Z,14.65
2018-03-11T22:07:25.948Z,15.73
2018-03-11T22:09:51.993Z,14.35
2018-03-11T22:12:18.017Z,13.38
2018-03-11T22:14:44.171Z,14.40
2018-03-11T22:17:10.334Z,14.18
2018-03-11T22:19:36.346Z,12.05
2018-03-11T22:22:02.491Z,11.88
2018-03-11T22:24:28.551Z,12.43
2018-03-11T22:26:54.634Z,12.37
2018-03-11T22:29:20.654Z,14.07
2018-03-11T22:31:46.629Z,13.48
2018-03-11T22:34:12.730Z,13.73
2018-03-11T22:36:38.874Z,13.43
2018-03-11T22:39:04.955Z,14.38
2018-03-11T22:41:30.973Z,12.70
2018-03-11T22:43:57.032Z,14.60
2018-03-11T22:46:23.087Z,14.27
2018-03-11T22:48:49.132Z,13.82
2018-03-11T22:51:15.161Z,14.15
2018-03-11T22:53:41.267Z,15.43
2018-03-11T22:56:07.302Z,15.90
2018-03-11T22:58:33.319Z,15.60
2018-03-11T23:00:59.368Z,16.23
2018-03-11T23:03:25.499Z,15.82
2018-03-11T23:05:51.524Z,15.95
2018-03-11T23:08:17.592Z,15.40
2018-03-11T23:10:44.390Z,15.57
2018-03-11T23:13:10.608Z,15.00
2018-03-11T23:15:36.695Z,15.32
2018-03-11T23:18:02.783Z,14.95
2018-03-11T23:20:28.788Z,13.95
2018-03-11T23:22:55.008Z,12.52
2018-03-11T23:25:21.126Z,13.68
2018-03-11T23:27:47.206Z,14.98
2018-03-11T23:30:13.266Z,13.65
2018-03-11T23:32:39.250Z,13.50
2018-03-11T23:35:05.325Z,13.77
2018-03-11T23:37:31.338Z,14.63
2018-03-11T23:39:57.358Z,14.95
2018-03-11T23:42:23.370Z,13.55
2018-03-11T23:44:49.373Z,14.02
2018-03-11T23:47:15.383Z,13.27
2018-03-11T23:49:41.365Z,12.63
2018-03-11T23:52:07.400Z,13.77
2018-03-11T23:54:33.415Z,11.77
2018-03-11T23:56:59.425Z,12.07
2018-03-11T23:59:25.453Z,12.50
